createdAt,value
2022-11-19T00:01:16.981Z,8.3
2022-11-19T00:07:06.687Z,8.2
2022-11-19T00:12:06.682Z,8.2
2022-11-19T00:17:16.978Z,8.5
2022-11-19T00:23:06.484Z,8.2
2022-11-19T00:28:16.980Z,8.1
2022-11-19T00:34:16.767Z,8.2
2022-11-19T00:39:17.597Z,8.2
2022-11-19T00:45:07.672Z,8.1
2022-11-19T00:50:16.946Z,8.1
2022-11-19T00:55:16.981Z,8
2022-11-19T01:01:06.764Z,8.2
2022-11-19T01:06:19.388Z,8.3
2022-11-19T01:11:16.934Z,8.2
2022-11-19T01:17:06.650Z,8.3
2022-11-19T01:22:06.770Z,7.9
2022-11-19T01:27:16.951Z,8.3
2022-11-19T01:33:06.583Z,8.3
2022-11-19T01:38:16.725Z,8.1
2022-11-19T01:43:16.745Z,8.2
2022-11-19T01:49:06.486Z,7.9
2022-11-19T01:54:06.545Z,8.1
2022-11-19T01:59:17.587Z,7.8
2022-11-19T02:05:06.424Z,7.8
2022-11-19T02:10:16.760Z,7.9
2022-11-19T02:15:16.767Z,7.9
2022-11-19T02:20:16.774Z,8.2
2022-11-19T02:26:06.878Z,7.8
2022-11-19T02:31:16.750Z,7.2
2022-11-19T02:37:06.454Z,7
2022-11-19T02:42:06.531Z,7
2022-11-19T02:47:06.653Z,6.5
2022-11-19T02:52:25.158Z,6.1
2022-11-19T02:58:07.280Z,5.9
2022-11-19T03:03:16.906Z,5.9
2022-11-19T03:08:16.956Z,5.3
2022-11-19T03:13:16.979Z,5.4
2022-11-19T03:19:06.636Z,5.7
2022-11-19T03:24:16.966Z,5.6
2022-11-19T03:30:06.804Z,5.5
2022-11-19T03:35:16.992Z,5.2
2022-11-19T03:41:06.644Z,4.9
2022-11-19T03:46:16.956Z,5
2022-11-19T03:52:06.487Z,4.7
2022-11-19T03:57:06.646Z,4.7
2022-11-19T04:02:16.990Z,4.9
2022-11-19T04:08:06.794Z,4.8
2022-11-19T04:13:16.922Z,4.6
2022-11-19T04:18:16.985Z,4.4
2022-11-19T04:24:06.620Z,4.2
2022-11-19T04:29:07.001Z,4
2022-11-19T04:34:16.930Z,4.2
2022-11-19T04:39:17.337Z,4.1
2022-11-19T04:45:06.409Z,3.9
2022-11-19T04:50:06.444Z,4.2
2022-11-19T04:55:06.467Z,4
2022-11-19T05:00:06.601Z,3.9
2022-11-19T05:05:06.611Z,3.9
2022-11-19T05:10:16.941Z,3.8
2022-11-19T05:16:06.586Z,3.6
2022-11-19T05:21:06.615Z,3.9
2022-11-19T05:26:16.919Z,3.7
2022-11-19T05:31:16.913Z,3.6
2022-11-19T05:36:17.052Z,3.4
2022-11-19T05:42:06.626Z,3.4
2022-11-19T05:47:06.885Z,3.5
2022-11-19T05:52:16.914Z,3.5
2022-11-19T05:57:17.003Z,3.1
2022-11-19T06:03:06.703Z,3.2
2022-11-19T06:08:06.648Z,3.4
2022-11-19T06:13:16.778Z,3.5
2022-11-19T06:19:06.607Z,3.3
2022-11-19T06:24:06.652Z,3.4
2022-11-19T06:29:17.047Z,3
2022-11-19T06:34:16.863Z,2.9
2022-11-19T06:39:17.241Z,3.1
2022-11-19T06:45:06.635Z,3.5
2022-11-19T06:50:16.686Z,3.4
2022-11-19T06:55:16.909Z,3.6
2022-11-19T07:01:06.660Z,3.5
2022-11-19T07:06:16.786Z,3.7
2022-11-19T07:11:16.906Z,3.4
2022-11-19T07:16:16.915Z,3.4
2022-11-19T07:22:06.605Z,3.4
2022-11-19T07:27:16.897Z,3.5
2022-11-19T07:33:06.630Z,3.2
2022-11-19T07:38:16.834Z,3.3
2022-11-19T07:43:16.875Z,3.3
2022-11-19T07:49:06.385Z,3.3
2022-11-19T07:54:16.753Z,3.7
2022-11-19T08:00:06.362Z,3.7
2022-11-19T08:05:06.397Z,3.7
2022-11-19T08:10:31.418Z,3.3
2022-11-19T08:16:06.651Z,3.4
2022-11-19T08:21:16.690Z,3.1
2022-11-19T08:26:16.682Z,3.7
2022-11-19T08:32:06.913Z,3.5
2022-11-19T08:37:16.712Z,3.9
2022-11-19T08:42:16.717Z,3.7
2022-11-19T08:48:06.669Z,3.5
2022-11-19T08:53:16.634Z,3.4
2022-11-19T08:58:16.621Z,3.9
2022-11-19T09:03:23.614Z,3.8
2022-11-19T09:09:06.900Z,4
2022-11-19T09:14:17.024Z,3.9
2022-11-19T09:20:06.467Z,3.8
2022-11-19T09:25:16.894Z,4.1
2022-11-19T09:31:06.547Z,4.1
2022-11-19T09:36:16.877Z,4.2
2022-11-19T09:42:06.606Z,4.3
2022-11-19T09:47:16.859Z,3.9
2022-11-19T09:52:17.030Z,3.6
2022-11-19T09:58:07.216Z,3.9
2022-11-19T10:03:18.078Z,3.9
2022-11-19T10:09:06.580Z,4.2
2022-11-19T10:14:17.102Z,4
2022-11-19T10:19:16.900Z,4.2
2022-11-19T10:25:06.620Z,3.9
2022-11-19T10:30:16.827Z,3.9
2022-11-19T10:36:06.538Z,3.9
2022-11-19T10:41:06.580Z,3.9
2022-11-19T10:46:16.659Z,3.9
2022-11-19T10:52:08.041Z,4
2022-11-19T10:57:16.631Z,4.1
2022-11-19T11:03:06.607Z,4
2022-11-19T11:08:16.833Z,4.4
2022-11-19T11:13:24.860Z,4.6
2022-11-19T11:19:06.607Z,4.4
2022-11-19T11:24:07.178Z,4.3
2022-11-19T11:29:17.110Z,4.5
2022-11-19T11:35:09.063Z,4.8
2022-11-19T11:40:06.531Z,4.8
2022-11-19T11:45:16.859Z,5
2022-11-19T11:51:06.337Z,5.2
2022-11-19T11:56:06.519Z,5
2022-11-19T12:01:08.451Z,5.2
2022-11-19T12:06:06.528Z,5.1
2022-11-19T12:11:16.819Z,5.3
2022-11-19T12:16:17.131Z,4.8
2022-11-19T12:22:06.510Z,5.4
2022-11-19T12:27:17.069Z,4.9
2022-11-19T12:32:16.815Z,5.6
2022-11-19T12:38:06.508Z,5.8
2022-11-19T12:43:16.973Z,5.2
2022-11-19T12:49:06.524Z,5.3
2022-11-19T12:54:19.476Z,5.2
2022-11-19T12:59:16.904Z,5
2022-11-19T13:05:06.518Z,4.8
2022-11-19T13:10:06.720Z,4.6
2022-11-19T13:15:16.879Z,4.8
2022-11-19T13:21:06.509Z,4.8
2022-11-19T13:26:08.131Z,4.5
2022-11-19T13:31:16.831Z,4.6
2022-11-19T13:36:16.922Z,4.8
2022-11-19T13:42:06.263Z,4.8
2022-11-19T13:47:16.859Z,4.8
2022-11-19T13:53:18.440Z,4.6
2022-11-19T13:59:06.308Z,4.8
2022-11-19T14:04:06.533Z,5
2022-11-19T14:09:06.499Z,5.1
2022-11-19T14:14:16.590Z,4.8
2022-11-19T14:19:16.903Z,4.6
2022-11-19T14:25:06.247Z,4.7
2022-11-19T14:30:06.765Z,4.5
2022-11-19T14:35:16.725Z,4.3
2022-11-19T14:41:06.305Z,4.3
2022-11-19T14:46:06.329Z,4.5
2022-11-19T14:51:16.590Z,4.5
2022-11-19T14:56:16.617Z,4.4
2022-11-19T15:02:06.364Z,4.6
2022-11-19T15:07:06.502Z,4.6
2022-11-19T15:12:16.622Z,4.4
2022-11-19T15:17:16.584Z,4.3
2022-11-19T15:23:06.503Z,4.4
2022-11-19T15:28:06.497Z,4.2
2022-11-19T15:33:06.494Z,4.2
2022-11-19T15:38:20.232Z,4
2022-11-19T15:43:16.772Z,4
2022-11-19T15:48:16.792Z,4
2022-11-19T15:54:06.618Z,4
2022-11-19T15:59:16.780Z,4
2022-11-19T16:05:06.517Z,3.6
2022-11-19T16:10:16.907Z,4.1
2022-11-19T16:16:06.470Z,4
2022-11-19T16:21:06.544Z,4.1
2022-11-19T16:26:16.803Z,4
2022-11-19T16:32:06.623Z,3.8
2022-11-19T16:37:16.770Z,4
2022-11-19T16:42:16.818Z,4
2022-11-19T16:48:06.553Z,4
2022-11-19T16:53:16.736Z,4.1
2022-11-19T16:58:16.830Z,3.7
2022-11-19T17:03:26.002Z,3.8
2022-11-19T17:09:06.439Z,3.9
2022-11-19T17:14:16.764Z,3.9
2022-11-19T17:19:16.801Z,3.8
2022-11-19T17:25:06.491Z,3.9
2022-11-19T17:30:16.685Z,3.9
2022-11-19T17:35:16.780Z,3.6
2022-11-19T17:41:06.525Z,3.5
2022-11-19T17:46:16.580Z,3.6
2022-11-19T17:51:16.604Z,3.8
2022-11-19T17:56:16.744Z,3.9
2022-11-19T18:01:16.861Z,3.6
2022-11-19T18:06:16.806Z,3.6
2022-11-19T18:12:06.269Z,3.5
2022-11-19T18:17:16.814Z,3.6
2022-11-19T18:23:06.392Z,3.5
2022-11-19T18:28:06.466Z,3.6
2022-11-19T18:33:16.746Z,3.9
2022-11-19T18:38:16.793Z,3.3
2022-11-19T18:44:06.457Z,3.6
2022-11-19T18:49:06.498Z,3.7
2022-11-19T18:54:16.806Z,3.5
2022-11-19T19:00:06.270Z,3.9
2022-11-19T19:05:06.429Z,3.8
2022-11-19T19:10:06.498Z,3.5
2022-11-19T19:15:16.735Z,3.4
2022-11-19T19:21:06.719Z,3.5
2022-11-19T19:26:16.580Z,3.3
2022-11-19T19:31:18.068Z,3.4
2022-11-19T19:36:16.801Z,3
2022-11-19T19:42:06.496Z,3.2
2022-11-19T19:47:16.467Z,3.1
2022-11-19T19:52:16.522Z,3.2
2022-11-19T19:57:16.831Z,2.9
2022-11-19T20:02:16.793Z,3.2
2022-11-19T20:07:16.753Z,3
2022-11-19T20:13:06.249Z,3
2022-11-19T20:18:06.248Z,3.3
2022-11-19T20:23:16.569Z,3.4
2022-11-19T20:28:16.576Z,3.5
2022-11-19T20:34:06.256Z,3.1
2022-11-19T20:39:16.535Z,2.8
2022-11-19T20:45:06.289Z,3.2
2022-11-19T20:50:06.274Z,2.8
2022-11-19T20:55:16.599Z,3.3
2022-11-19T21:01:06.272Z,3.2
2022-11-19T21:06:06.298Z,3.3
2022-11-19T21:11:16.500Z,3.4
2022-11-19T21:16:16.553Z,3.3
2022-11-19T21:21:16.572Z,3.1
2022-11-19T21:26:16.636Z,3.1
2022-11-19T21:31:16.678Z,3.3
2022-11-19T21:37:06.236Z,3.6
2022-11-19T21:42:06.431Z,3.1
2022-11-19T21:47:16.658Z,3.1
2022-11-19T21:52:16.701Z,3.2
2022-11-19T21:58:06.381Z,3
2022-11-19T22:03:06.408Z,3
2022-11-19T22:08:06.468Z,2.8
2022-11-19T22:13:16.698Z,3.2
2022-11-19T22:19:06.417Z,2.8
2022-11-19T22:24:16.804Z,3
2022-11-19T22:29:16.726Z,3.1
2022-11-19T22:35:06.619Z,2.9
2022-11-19T22:40:16.737Z,2.8
2022-11-19T22:46:06.229Z,2.8
2022-11-19T22:51:06.238Z,2.9
2022-11-19T22:56:06.427Z,3.1
2022-11-19T23:01:06.502Z,2.9
2022-11-19T23:06:16.728Z,2.8
2022-11-19T23:12:06.431Z,3
2022-11-19T23:17:16.717Z,2.9
2022-11-19T23:23:06.457Z,3
2022-11-19T23:28:16.712Z,3
2022-11-19T23:34:06.396Z,3.3
2022-11-19T23:39:08.797Z,3.3
2022-11-19T23:44:16.730Z,2.9
2022-11-19T23:50:06.177Z,3
2022-11-19T23:55:06.408Z,3.1
